sensor_id;sensor_type;location;lat;lon;timestamp;P1;durP1;ratioP1;P2;durP2;ratioP2
79747;SDS011;69232;47.488;19.268;2023-07-20T00:00:24;12.65;;;4.20;;
79747;SDS011;69232;47.488;19.268;2023-07-20T00:02:50;11.05;;;3.83;;
79747;SDS011;69232;47.488;19.268;2023-07-20T00:05:16;7.43;;;3.78;;
79747;SDS011;69232;47.488;19.268;2023-07-20T00:07:46;5.97;;;3.53;;
79747;SDS011;69232;47.488;19.268;2023-07-20T00:10:12;7.80;;;3.88;;
79747;SDS011;69232;47.488;19.268;2023-07-20T00:12:38;13.02;;;5.15;;
79747;SDS011;69232;47.488;19.268;2023-07-20T00:15:04;11.50;;;4.20;;
79747;SDS011;69232;47.488;19.268;2023-07-20T00:17:29;12.30;;;4.10;;
79747;SDS011;69232;47.488;19.268;2023-07-20T00:19:55;6.28;;;3.60;;
79747;SDS011;69232;47.488;19.268;2023-07-20T00:22:20;9.65;;;3.90;;
79747;SDS011;69232;47.488;19.268;2023-07-20T00:24:46;11.52;;;4.15;;
79747;SDS011;69232;47.488;19.268;2023-07-20T00:27:11;10.85;;;4.00;;
79747;SDS011;69232;47.488;19.268;2023-07-20T00:29:37;9.63;;;5.18;;
79747;SDS011;69232;47.488;19.268;2023-07-20T00:32:02;6.43;;;3.97;;
79747;SDS011;69232;47.488;19.268;2023-07-20T00:34:30;8.85;;;3.58;;
79747;SDS011;69232;47.488;19.268;2023-07-20T00:36:56;5.55;;;3.30;;
79747;SDS011;69232;47.488;19.268;2023-07-20T00:39:21;11.20;;;3.88;;
79747;SDS011;69232;47.488;19.268;2023-07-20T00:41:47;6.65;;;4.00;;
79747;SDS011;69232;47.488;19.268;2023-07-20T00:44:12;9.77;;;3.90;;
79747;SDS011;69232;47.488;19.268;2023-07-20T00:46:37;23.30;;;4.50;;
79747;SDS011;69232;47.488;19.268;2023-07-20T00:49:03;6.72;;;3.78;;
79747;SDS011;69232;47.488;19.268;2023-07-20T00:51:28;7.85;;;3.55;;
79747;SDS011;69232;47.488;19.268;2023-07-20T00:53:54;6.72;;;3.88;;
79747;SDS011;69232;47.488;19.268;2023-07-20T00:56:20;9.25;;;4.10;;
79747;SDS011;69232;47.488;19.268;2023-07-20T00:58:46;8.68;;;3.83;;
79747;SDS011;69232;47.488;19.268;2023-07-20T01:01:12;9.27;;;3.47;;
79747;SDS011;69232;47.488;19.268;2023-07-20T01:03:37;8.48;;;3.90;;
79747;SDS011;69232;47.488;19.268;2023-07-20T01:06:10;7.68;;;4.10;;
79747;SDS011;69232;47.488;19.268;2023-07-20T01:08:56;6.78;;;4.28;;
79747;SDS011;69232;47.488;19.268;2023-07-20T01:14:15;7.30;;;3.05;;
79747;SDS011;69232;47.488;19.268;2023-07-20T01:16:41;9.30;;;4.18;;
79747;SDS011;69232;47.488;19.268;2023-07-20T01:19:06;11.13;;;4.45;;
79747;SDS011;69232;47.488;19.268;2023-07-20T01:21:37;8.60;;;3.67;;
79747;SDS011;69232;47.488;19.268;2023-07-20T01:24:10;9.02;;;3.60;;
79747;SDS011;69232;47.488;19.268;2023-07-20T01:27:05;9.57;;;3.92;;
79747;SDS011;69232;47.488;19.268;2023-07-20T01:32:05;7.10;;;3.40;;
79747;SDS011;69232;47.488;19.268;2023-07-20T01:34:32;7.15;;;3.80;;
79747;SDS011;69232;47.488;19.268;2023-07-20T01:37:00;8.15;;;3.95;;
79747;SDS011;69232;47.488;19.268;2023-07-20T01:39:26;13.15;;;4.40;;
79747;SDS011;69232;47.488;19.268;2023-07-20T01:41:51;7.38;;;3.95;;
79747;SDS011;69232;47.488;19.268;2023-07-20T01:44:17;11.23;;;4.25;;
79747;SDS011;69232;47.488;19.268;2023-07-20T01:46:43;7.40;;;3.72;;
79747;SDS011;69232;47.488;19.268;2023-07-20T01:49:08;8.32;;;3.80;;
79747;SDS011;69232;47.488;19.268;2023-07-20T01:51:34;11.45;;;6.22;;
79747;SDS011;69232;47.488;19.268;2023-07-20T01:53:59;6.50;;;3.47;;
79747;SDS011;69232;47.488;19.268;2023-07-20T01:56:25;10.82;;;5.07;;
79747;SDS011;69232;47.488;19.268;2023-07-20T01:58:50;6.65;;;3.78;;
79747;SDS011;69232;47.488;19.268;2023-07-20T02:01:15;10.32;;;3.50;;
79747;SDS011;69232;47.488;19.268;2023-07-20T02:03:41;7.50;;;3.70;;
79747;SDS011;69232;47.488;19.268;2023-07-20T02:06:06;6.72;;;3.58;;
79747;SDS011;69232;47.488;19.268;2023-07-20T02:08:31;10.17;;;4.63;;
79747;SDS011;69232;47.488;19.268;2023-07-20T02:10:57;7.95;;;3.72;;
79747;SDS011;69232;47.488;19.268;2023-07-20T02:13:22;7.10;;;4.18;;
79747;SDS011;69232;47.488;19.268;2023-07-20T02:15:47;6.40;;;3.58;;
79747;SDS011;69232;47.488;19.268;2023-07-20T02:18:14;13.35;;;4.85;;
79747;SDS011;69232;47.488;19.268;2023-07-20T02:20:40;11.77;;;4.30;;
79747;SDS011;69232;47.488;19.268;2023-07-20T02:23:06;11.07;;;4.18;;
79747;SDS011;69232;47.488;19.268;2023-07-20T02:25:31;8.60;;;4.15;;
79747;SDS011;69232;47.488;19.268;2023-07-20T02:27:57;10.57;;;4.47;;
79747;SDS011;69232;47.488;19.268;2023-07-20T02:30:23;11.93;;;4.63;;
79747;SDS011;69232;47.488;19.268;2023-07-20T02:32:48;7.88;;;4.10;;
79747;SDS011;69232;47.488;19.268;2023-07-20T02:35:17;7.45;;;4.30;;
79747;SDS011;69232;47.488;19.268;2023-07-20T02:37:42;10.18;;;3.97;;
79747;SDS011;69232;47.488;19.268;2023-07-20T02:40:07;12.30;;;3.92;;
79747;SDS011;69232;47.488;19.268;2023-07-20T02:42:34;9.68;;;3.90;;
79747;SDS011;69232;47.488;19.268;2023-07-20T02:45:00;5.57;;;3.63;;
79747;SDS011;69232;47.488;19.268;2023-07-20T02:47:26;9.93;;;4.30;;
79747;SDS011;69232;47.488;19.268;2023-07-20T02:49:51;11.55;;;4.18;;
79747;SDS011;69232;47.488;19.268;2023-07-20T02:52:17;8.05;;;3.47;;
79747;SDS011;69232;47.488;19.268;2023-07-20T02:54:42;7.32;;;3.88;;
79747;SDS011;69232;47.488;19.268;2023-07-20T02:57:07;9.50;;;4.13;;
79747;SDS011;69232;47.488;19.268;2023-07-20T02:59:33;10.88;;;3.55;;
79747;SDS011;69232;47.488;19.268;2023-07-20T03:01:58;9.70;;;3.95;;
79747;SDS011;69232;47.488;19.268;2023-07-20T03:04:27;8.15;;;4.60;;
79747;SDS011;69232;47.488;19.268;2023-07-20T03:06:52;7.60;;;3.55;;
79747;SDS011;69232;47.488;19.268;2023-07-20T03:09:18;7.13;;;3.60;;
79747;SDS011;69232;47.488;19.268;2023-07-20T03:11:43;8.02;;;3.78;;
79747;SDS011;69232;47.488;19.268;2023-07-20T03:14:08;6.20;;;3.85;;
79747;SDS011;69232;47.488;19.268;2023-07-20T03:16:35;5.90;;;4.20;;
79747;SDS011;69232;47.488;19.268;2023-07-20T03:19:01;8.02;;;3.55;;
79747;SDS011;69232;47.488;19.268;2023-07-20T03:21:26;9.52;;;4.40;;
79747;SDS011;69232;47.488;19.268;2023-07-20T03:23:52;8.52;;;4.50;;
79747;SDS011;69232;47.488;19.268;2023-07-20T03:26:17;7.78;;;4.07;;
79747;SDS011;69232;47.488;19.268;2023-07-20T03:28:42;8.32;;;3.90;;
79747;SDS011;69232;47.488;19.268;2023-07-20T03:31:08;9.85;;;3.95;;
79747;SDS011;69232;47.488;19.268;2023-07-20T03:33:34;6.15;;;3.85;;
79747;SDS011;69232;47.488;19.268;2023-07-20T03:36:00;8.48;;;4.35;;
79747;SDS011;69232;47.488;19.268;2023-07-20T03:38:26;7.32;;;4.15;;
79747;SDS011;69232;47.488;19.268;2023-07-20T03:40:56;12.00;;;4.78;;
79747;SDS011;69232;47.488;19.268;2023-07-20T03:43:23;8.05;;;3.78;;
79747;SDS011;69232;47.488;19.268;2023-07-20T03:45:49;9.52;;;4.50;;
79747;SDS011;69232;47.488;19.268;2023-07-20T03:48:18;11.50;;;4.40;;
79747;SDS011;69232;47.488;19.268;2023-07-20T03:53:11;6.85;;;3.53;;
79747;SDS011;69232;47.488;19.268;2023-07-20T03:55:37;10.18;;;4.45;;
79747;SDS011;69232;47.488;19.268;2023-07-20T03:58:02;6.40;;;3.65;;
79747;SDS011;69232;47.488;19.268;2023-07-20T04:00:28;9.63;;;4.32;;
79747;SDS011;69232;47.488;19.268;2023-07-20T04:02:54;11.02;;;4.10;;
79747;SDS011;69232;47.488;19.268;2023-07-20T04:05:19;10.95;;;4.10;;
79747;SDS011;69232;47.488;19.268;2023-07-20T04:07:45;10.57;;;4.03;;
79747;SDS011;69232;47.488;19.268;2023-07-20T04:10:10;6.40;;;3.47;;
79747;SDS011;69232;47.488;19.268;2023-07-20T04:12:35;9.57;;;4.88;;
79747;SDS011;69232;47.488;19.268;2023-07-20T04:15:01;9.10;;;4.20;;
79747;SDS011;69232;47.488;19.268;2023-07-20T04:17:28;14.00;;;4.82;;
79747;SDS011;69232;47.488;19.268;2023-07-20T04:19:54;9.07;;;4.03;;
79747;SDS011;69232;47.488;19.268;2023-07-20T04:22:19;8.50;;;3.80;;
79747;SDS011;69232;47.488;19.268;2023-07-20T04:24:45;9.55;;;4.30;;
79747;SDS011;69232;47.488;19.268;2023-07-20T04:27:10;9.50;;;4.07;;
79747;SDS011;69232;47.488;19.268;2023-07-20T04:29:35;7.57;;;4.07;;
79747;SDS011;69232;47.488;19.268;2023-07-20T04:32:01;13.75;;;4.50;;
79747;SDS011;69232;47.488;19.268;2023-07-20T04:34:26;13.52;;;3.95;;
79747;SDS011;69232;47.488;19.268;2023-07-20T04:36:52;7.50;;;3.83;;
79747;SDS011;69232;47.488;19.268;2023-07-20T04:39:18;12.27;;;4.60;;
79747;SDS011;69232;47.488;19.268;2023-07-20T04:41:43;10.15;;;4.20;;
79747;SDS011;69232;47.488;19.268;2023-07-20T04:44:09;8.82;;;3.70;;
79747;SDS011;69232;47.488;19.268;2023-07-20T04:46:34;7.18;;;3.72;;
79747;SDS011;69232;47.488;19.268;2023-07-20T04:49:00;6.95;;;3.55;;
79747;SDS011;69232;47.488;19.268;2023-07-20T04:51:26;8.27;;;4.00;;
79747;SDS011;69232;47.488;19.268;2023-07-20T04:53:51;6.63;;;2.60;;
79747;SDS011;69232;47.488;19.268;2023-07-20T04:56:17;4.38;;;2.40;;
79747;SDS011;69232;47.488;19.268;2023-07-20T04:58:42;5.05;;;2.78;;
79747;SDS011;69232;47.488;19.268;2023-07-20T05:01:08;4.82;;;2.72;;
79747;SDS011;69232;47.488;19.268;2023-07-20T05:03:33;6.32;;;3.15;;
79747;SDS011;69232;47.488;19.268;2023-07-20T05:05:59;4.28;;;2.80;;
79747;SDS011;69232;47.488;19.268;2023-07-20T05:08:24;7.38;;;2.65;;
79747;SDS011;69232;47.488;19.268;2023-07-20T05:10:50;5.43;;;2.70;;
79747;SDS011;69232;47.488;19.268;2023-07-20T05:13:16;5.15;;;2.72;;
79747;SDS011;69232;47.488;19.268;2023-07-20T05:15:41;6.00;;;2.80;;
79747;SDS011;69232;47.488;19.268;2023-07-20T05:18:06;6.05;;;2.90;;
79747;SDS011;69232;47.488;19.268;2023-07-20T05:20:33;4.82;;;2.50;;
79747;SDS011;69232;47.488;19.268;2023-07-20T05:22:59;6.63;;;2.85;;
79747;SDS011;69232;47.488;19.268;2023-07-20T05:25:26;5.13;;;2.63;;
79747;SDS011;69232;47.488;19.268;2023-07-20T05:27:51;8.18;;;3.25;;
79747;SDS011;69232;47.488;19.268;2023-07-20T05:30:17;6.78;;;2.80;;
79747;SDS011;69232;47.488;19.268;2023-07-20T05:32:43;6.15;;;2.75;;
79747;SDS011;69232;47.488;19.268;2023-07-20T05:35:11;5.22;;;2.63;;
79747;SDS011;69232;47.488;19.268;2023-07-20T05:37:37;6.30;;;2.42;;
79747;SDS011;69232;47.488;19.268;2023-07-20T05:40:03;6.25;;;2.70;;
79747;SDS011;69232;47.488;19.268;2023-07-20T05:42:30;5.25;;;2.83;;
79747;SDS011;69232;47.488;19.268;2023-07-20T05:44:55;5.57;;;2.83;;
79747;SDS011;69232;47.488;19.268;2023-07-20T05:47:21;6.63;;;2.65;;
79747;SDS011;69232;47.488;19.268;2023-07-20T05:49:46;6.75;;;2.67;;
79747;SDS011;69232;47.488;19.268;2023-07-20T05:52:12;5.60;;;2.97;;
79747;SDS011;69232;47.488;19.268;2023-07-20T05:54:37;7.00;;;2.95;;
79747;SDS011;69232;47.488;19.268;2023-07-20T05:57:02;7.43;;;3.10;;
79747;SDS011;69232;47.488;19.268;2023-07-20T05:59:28;5.93;;;2.92;;
79747;SDS011;69232;47.488;19.268;2023-07-20T06:01:56;6.43;;;2.90;;
79747;SDS011;69232;47.488;19.268;2023-07-20T06:04:22;7.22;;;2.90;;
79747;SDS011;69232;47.488;19.268;2023-07-20T06:06:47;5.45;;;2.85;;
79747;SDS011;69232;47.488;19.268;2023-07-20T06:09:13;14.77;;;8.82;;
79747;SDS011;69232;47.488;19.268;2023-07-20T06:11:39;12.98;;;9.98;;
79747;SDS011;69232;47.488;19.268;2023-07-20T06:14:04;5.13;;;3.42;;
79747;SDS011;69232;47.488;19.268;2023-07-20T06:16:30;5.80;;;2.95;;
79747;SDS011;69232;47.488;19.268;2023-07-20T06:18:55;4.07;;;2.85;;
79747;SDS011;69232;47.488;19.268;2023-07-20T06:21:21;7.63;;;3.00;;
79747;SDS011;69232;47.488;19.268;2023-07-20T06:23:46;6.13;;;3.25;;
79747;SDS011;69232;47.488;19.268;2023-07-20T06:26:12;5.30;;;2.60;;
79747;SDS011;69232;47.488;19.268;2023-07-20T06:28:37;4.70;;;3.10;;
79747;SDS011;69232;47.488;19.268;2023-07-20T06:31:03;7.68;;;2.60;;
79747;SDS011;69232;47.488;19.268;2023-07-20T06:33:29;8.63;;;3.42;;
79747;SDS011;69232;47.488;19.268;2023-07-20T06:35:54;4.28;;;2.85;;
79747;SDS011;69232;47.488;19.268;2023-07-20T06:38:22;3.63;;;2.38;;
79747;SDS011;69232;47.488;19.268;2023-07-20T06:40:48;5.32;;;2.78;;
79747;SDS011;69232;47.488;19.268;2023-07-20T06:43:16;5.78;;;3.25;;
79747;SDS011;69232;47.488;19.268;2023-07-20T06:45:42;4.80;;;2.90;;
79747;SDS011;69232;47.488;19.268;2023-07-20T06:48:07;7.32;;;2.97;;
79747;SDS011;69232;47.488;19.268;2023-07-20T06:50:33;6.70;;;3.25;;
79747;SDS011;69232;47.488;19.268;2023-07-20T06:52:59;5.35;;;2.80;;
79747;SDS011;69232;47.488;19.268;2023-07-20T06:55:25;8.88;;;3.35;;
79747;SDS011;69232;47.488;19.268;2023-07-20T06:57:51;5.68;;;3.60;;
79747;SDS011;69232;47.488;19.268;2023-07-20T07:00:16;6.43;;;3.55;;
79747;SDS011;69232;47.488;19.268;2023-07-20T07:02:42;6.70;;;3.53;;
79747;SDS011;69232;47.488;19.268;2023-07-20T07:05:08;6.30;;;3.05;;
79747;SDS011;69232;47.488;19.268;2023-07-20T07:07:33;6.45;;;2.75;;
79747;SDS011;69232;47.488;19.268;2023-07-20T07:09:59;5.35;;;2.70;;
79747;SDS011;69232;47.488;19.268;2023-07-20T07:12:25;6.68;;;2.90;;
79747;SDS011;69232;47.488;19.268;2023-07-20T07:14:50;5.53;;;2.83;;
79747;SDS011;69232;47.488;19.268;2023-07-20T07:17:16;8.30;;;2.97;;
79747;SDS011;69232;47.488;19.268;2023-07-20T07:19:41;9.80;;;3.08;;
79747;SDS011;69232;47.488;19.268;2023-07-20T07:22:07;3.88;;;2.42;;
79747;SDS011;69232;47.488;19.268;2023-07-20T07:24:32;7.18;;;2.85;;
79747;SDS011;69232;47.488;19.268;2023-07-20T07:26:59;10.00;;;3.60;;
79747;SDS011;69232;47.488;19.268;2023-07-20T07:29:25;5.60;;;2.80;;
79747;SDS011;69232;47.488;19.268;2023-07-20T07:31:50;5.80;;;4.35;;
79747;SDS011;69232;47.488;19.268;2023-07-20T07:34:16;5.93;;;2.67;;
79747;SDS011;69232;47.488;19.268;2023-07-20T07:36:41;4.55;;;2.42;;
79747;SDS011;69232;47.488;19.268;2023-07-20T07:39:07;4.25;;;2.67;;
79747;SDS011;69232;47.488;19.268;2023-07-20T07:41:33;4.10;;;2.63;;
79747;SDS011;69232;47.488;19.268;2023-07-20T07:43:58;9.40;;;3.03;;
79747;SDS011;69232;47.488;19.268;2023-07-20T07:46:23;4.90;;;2.20;;
79747;SDS011;69232;47.488;19.268;2023-07-20T07:48:49;4.43;;;2.63;;
79747;SDS011;69232;47.488;19.268;2023-07-20T07:51:14;4.07;;;2.53;;
79747;SDS011;69232;47.488;19.268;2023-07-20T07:53:40;5.95;;;2.63;;
79747;SDS011;69232;47.488;19.268;2023-07-20T07:56:08;4.00;;;2.00;;
79747;SDS011;69232;47.488;19.268;2023-07-20T07:58:34;5.40;;;2.47;;
79747;SDS011;69232;47.488;19.268;2023-07-20T08:00:59;8.75;;;3.08;;
79747;SDS011;69232;47.488;19.268;2023-07-20T08:03:25;4.05;;;2.22;;
79747;SDS011;69232;47.488;19.268;2023-07-20T08:05:51;4.70;;;2.25;;
79747;SDS011;69232;47.488;19.268;2023-07-20T08:08:20;5.43;;;2.13;;
79747;SDS011;69232;47.488;19.268;2023-07-20T08:10:45;5.35;;;2.50;;
79747;SDS011;69232;47.488;19.268;2023-07-20T08:13:11;4.47;;;2.22;;
79747;SDS011;69232;47.488;19.268;2023-07-20T08:15:36;3.63;;;1.85;;
79747;SDS011;69232;47.488;19.268;2023-07-20T08:18:02;5.57;;;2.50;;
79747;SDS011;69232;47.488;19.268;2023-07-20T08:20:27;4.47;;;2.08;;
79747;SDS011;69232;47.488;19.268;2023-07-20T08:22:54;5.38;;;2.30;;
79747;SDS011;69232;47.488;19.268;2023-07-20T08:25:20;5.00;;;2.70;;
79747;SDS011;69232;47.488;19.268;2023-07-20T08:27:45;6.10;;;2.30;;
79747;SDS011;69232;47.488;19.268;2023-07-20T08:30:12;4.80;;;2.25;;
79747;SDS011;69232;47.488;19.268;2023-07-20T08:32:38;4.57;;;2.70;;
79747;SDS011;69232;47.488;19.268;2023-07-20T08:35:03;5.72;;;2.05;;
79747;SDS011;69232;47.488;19.268;2023-07-20T08:37:29;4.55;;;2.40;;
79747;SDS011;69232;47.488;19.268;2023-07-20T08:39:54;3.97;;;1.65;;
79747;SDS011;69232;47.488;19.268;2023-07-20T08:42:20;6.95;;;2.15;;
79747;SDS011;69232;47.488;19.268;2023-07-20T08:44:45;6.97;;;2.30;;
79747;SDS011;69232;47.488;19.268;2023-07-20T08:47:13;2.42;;;1.73;;
79747;SDS011;69232;47.488;19.268;2023-07-20T08:49:41;6.72;;;2.65;;
79747;SDS011;69232;47.488;19.268;2023-07-20T08:52:07;2.65;;;1.55;;
79747;SDS011;69232;47.488;19.268;2023-07-20T08:54:33;5.28;;;1.73;;
79747;SDS011;69232;47.488;19.268;2023-07-20T08:57:03;5.97;;;2.45;;
79747;SDS011;69232;47.488;19.268;2023-07-20T08:59:29;6.15;;;2.63;;
79747;SDS011;69232;47.488;19.268;2023-07-20T09:01:59;5.82;;;2.05;;
79747;SDS011;69232;47.488;19.268;2023-07-20T09:04:25;8.60;;;2.33;;
79747;SDS011;69232;47.488;19.268;2023-07-20T09:06:51;5.30;;;2.53;;
79747;SDS011;69232;47.488;19.268;2023-07-20T09:09:17;6.43;;;2.10;;
79747;SDS011;69232;47.488;19.268;2023-07-20T09:11:42;7.93;;;2.40;;
79747;SDS011;69232;47.488;19.268;2023-07-20T09:14:11;4.55;;;2.05;;
79747;SDS011;69232;47.488;19.268;2023-07-20T09:16:52;2.90;;;1.67;;
79747;SDS011;69232;47.488;19.268;2023-07-20T09:19:19;3.53;;;2.30;;
79747;SDS011;69232;47.488;19.268;2023-07-20T09:21:49;2.85;;;2.03;;
79747;SDS011;69232;47.488;19.268;2023-07-20T09:24:19;3.13;;;2.35;;
79747;SDS011;69232;47.488;19.268;2023-07-20T09:26:45;4.13;;;1.92;;
79747;SDS011;69232;47.488;19.268;2023-07-20T09:29:13;2.72;;;2.03;;
79747;SDS011;69232;47.488;19.268;2023-07-20T09:31:39;4.07;;;2.20;;
79747;SDS011;69232;47.488;19.268;2023-07-20T09:34:05;3.55;;;2.20;;
79747;SDS011;69232;47.488;19.268;2023-07-20T09:36:35;3.47;;;2.10;;
79747;SDS011;69232;47.488;19.268;2023-07-20T09:39:01;4.97;;;2.00;;
79747;SDS011;69232;47.488;19.268;2023-07-20T09:41:28;3.25;;;1.80;;
79747;SDS011;69232;47.488;19.268;2023-07-20T09:43:54;3.92;;;2.10;;
79747;SDS011;69232;47.488;19.268;2023-07-20T09:46:20;4.45;;;2.30;;
79747;SDS011;69232;47.488;19.268;2023-07-20T09:48:52;4.35;;;1.90;;
79747;SDS011;69232;47.488;19.268;2023-07-20T09:51:19;4.07;;;2.17;;
79747;SDS011;69232;47.488;19.268;2023-07-20T09:53:47;2.95;;;1.80;;
79747;SDS011;69232;47.488;19.268;2023-07-20T09:56:13;6.25;;;2.00;;
79747;SDS011;69232;47.488;19.268;2023-07-20T09:58:39;5.60;;;1.88;;
79747;SDS011;69232;47.488;19.268;2023-07-20T10:01:05;4.25;;;2.15;;
79747;SDS011;69232;47.488;19.268;2023-07-20T10:03:32;6.00;;;2.13;;
79747;SDS011;69232;47.488;19.268;2023-07-20T10:06:03;3.40;;;2.15;;
79747;SDS011;69232;47.488;19.268;2023-07-20T10:08:33;3.05;;;2.00;;
79747;SDS011;69232;47.488;19.268;2023-07-20T10:11:03;3.13;;;1.92;;
79747;SDS011;69232;47.488;19.268;2023-07-20T10:13:29;4.70;;;2.20;;
79747;SDS011;69232;47.488;19.268;2023-07-20T10:16:01;6.25;;;2.50;;
79747;SDS011;69232;47.488;19.268;2023-07-20T10:21:05;4.50;;;1.98;;
79747;SDS011;69232;47.488;19.268;2023-07-20T10:23:32;4.72;;;2.38;;
79747;SDS011;69232;47.488;19.268;2023-07-20T10:25:58;5.05;;;2.00;;
79747;SDS011;69232;47.488;19.268;2023-07-20T10:28:24;3.78;;;2.30;;
79747;SDS011;69232;47.488;19.268;2023-07-20T10:30:49;5.72;;;2.10;;
79747;SDS011;69232;47.488;19.268;2023-07-20T10:33:15;4.68;;;2.03;;
79747;SDS011;69232;47.488;19.268;2023-07-20T10:38:37;6.47;;;2.42;;
79747;SDS011;69232;47.488;19.268;2023-07-20T10:41:03;6.88;;;2.15;;
79747;SDS011;69232;47.488;19.268;2023-07-20T10:43:28;5.32;;;1.90;;
79747;SDS011;69232;47.488;19.268;2023-07-20T10:45:55;3.47;;;2.08;;
79747;SDS011;69232;47.488;19.268;2023-07-20T10:48:21;3.72;;;2.05;;
79747;SDS011;69232;47.488;19.268;2023-07-20T10:53:41;2.88;;;1.88;;
79747;SDS011;69232;47.488;19.268;2023-07-20T10:56:13;6.47;;;2.22;;
79747;SDS011;69232;47.488;19.268;2023-07-20T10:58:40;4.70;;;2.05;;
79747;SDS011;69232;47.488;19.268;2023-07-20T11:01:08;4.53;;;1.95;;
79747;SDS011;69232;47.488;19.268;2023-07-20T11:03:39;5.30;;;2.20;;
79747;SDS011;69232;47.488;19.268;2023-07-20T11:08:54;3.38;;;1.83;;
79747;SDS011;69232;47.488;19.268;2023-07-20T11:11:30;8.20;;;2.05;;
79747;SDS011;69232;47.488;19.268;2023-07-20T11:16:43;4.40;;;1.70;;
79747;SDS011;69232;47.488;19.268;2023-07-20T11:19:16;1.88;;;1.30;;
79747;SDS011;69232;47.488;19.268;2023-07-20T11:21:43;2.30;;;1.63;;
79747;SDS011;69232;47.488;19.268;2023-07-20T11:24:09;8.00;;;1.65;;
79747;SDS011;69232;47.488;19.268;2023-07-20T11:26:48;2.42;;;1.10;;
79747;SDS011;69232;47.488;19.268;2023-07-20T11:29:17;6.45;;;1.88;;
79747;SDS011;69232;47.488;19.268;2023-07-20T11:31:48;3.42;;;2.15;;
79747;SDS011;69232;47.488;19.268;2023-07-20T11:34:15;5.75;;;1.55;;
79747;SDS011;69232;47.488;19.268;2023-07-20T11:36:42;6.43;;;1.52;;
79747;SDS011;69232;47.488;19.268;2023-07-20T11:39:19;3.03;;;1.35;;
79747;SDS011;69232;47.488;19.268;2023-07-20T11:41:47;5.75;;;1.92;;
79747;SDS011;69232;47.488;19.268;2023-07-20T11:44:13;3.22;;;1.65;;
79747;SDS011;69232;47.488;19.268;2023-07-20T11:46:40;2.35;;;1.40;;
79747;SDS011;69232;47.488;19.268;2023-07-20T11:49:07;4.00;;;1.75;;
79747;SDS011;69232;47.488;19.268;2023-07-20T11:51:32;7.55;;;2.40;;
79747;SDS011;69232;47.488;19.268;2023-07-20T11:53:58;3.45;;;1.35;;
79747;SDS011;69232;47.488;19.268;2023-07-20T11:56:24;2.30;;;1.63;;
79747;SDS011;69232;47.488;19.268;2023-07-20T11:58:50;7.03;;;2.03;;
79747;SDS011;69232;47.488;19.268;2023-07-20T12:01:20;4.88;;;1.60;;
79747;SDS011;69232;47.488;19.268;2023-07-20T12:03:45;3.38;;;1.40;;
79747;SDS011;69232;47.488;19.268;2023-07-20T12:06:13;4.55;;;1.65;;
79747;SDS011;69232;47.488;19.268;2023-07-20T12:08:39;9.77;;;1.70;;
79747;SDS011;69232;47.488;19.268;2023-07-20T12:11:06;4.88;;;1.65;;
79747;SDS011;69232;47.488;19.268;2023-07-20T12:13:50;4.05;;;1.65;;
79747;SDS011;69232;47.488;19.268;2023-07-20T12:16:15;3.40;;;2.03;;
79747;SDS011;69232;47.488;19.268;2023-07-20T12:18:42;2.10;;;1.48;;
79747;SDS011;69232;47.488;19.268;2023-07-20T12:21:08;5.05;;;1.70;;
79747;SDS011;69232;47.488;19.268;2023-07-20T12:23:40;5.97;;;1.90;;
79747;SDS011;69232;47.488;19.268;2023-07-20T12:26:07;2.58;;;1.60;;
79747;SDS011;69232;47.488;19.268;2023-07-20T12:28:35;5.32;;;2.28;;
79747;SDS011;69232;47.488;19.268;2023-07-20T12:31:03;1.92;;;1.35;;
79747;SDS011;69232;47.488;19.268;2023-07-20T12:33:29;3.88;;;1.38;;
79747;SDS011;69232;47.488;19.268;2023-07-20T12:35:54;2.88;;;1.75;;
79747;SDS011;69232;47.488;19.268;2023-07-20T12:38:21;2.13;;;1.55;;
79747;SDS011;69232;47.488;19.268;2023-07-20T12:40:47;5.13;;;1.98;;
79747;SDS011;69232;47.488;19.268;2023-07-20T12:43:13;3.53;;;1.70;;
79747;SDS011;69232;47.488;19.268;2023-07-20T12:45:38;2.65;;;1.60;;
79747;SDS011;69232;47.488;19.268;2023-07-20T12:48:03;2.83;;;1.55;;
79747;SDS011;69232;47.488;19.268;2023-07-20T12:50:29;3.38;;;1.63;;
79747;SDS011;69232;47.488;19.268;2023-07-20T12:52:55;5.15;;;1.58;;
79747;SDS011;69232;47.488;19.268;2023-07-20T12:55:20;4.78;;;1.38;;
79747;SDS011;69232;47.488;19.268;2023-07-20T12:57:45;5.47;;;1.60;;
79747;SDS011;69232;47.488;19.268;2023-07-20T13:00:11;3.25;;;1.40;;
79747;SDS011;69232;47.488;19.268;2023-07-20T13:02:37;1.83;;;1.00;;
79747;SDS011;69232;47.488;19.268;2023-07-20T13:05:03;2.28;;;1.45;;
79747;SDS011;69232;47.488;19.268;2023-07-20T13:07:36;5.07;;;1.85;;
79747;SDS011;69232;47.488;19.268;2023-07-20T13:10:02;5.75;;;1.77;;
79747;SDS011;69232;47.488;19.268;2023-07-20T13:12:29;2.20;;;1.58;;
79747;SDS011;69232;47.488;19.268;2023-07-20T13:14:56;5.75;;;1.52;;
79747;SDS011;69232;47.488;19.268;2023-07-20T13:17:22;6.47;;;1.60;;
79747;SDS011;69232;47.488;19.268;2023-07-20T13:19:48;3.95;;;1.33;;
79747;SDS011;69232;47.488;19.268;2023-07-20T13:22:13;4.22;;;1.90;;
79747;SDS011;69232;47.488;19.268;2023-07-20T13:24:39;4.15;;;1.65;;
79747;SDS011;69232;47.488;19.268;2023-07-20T13:27:05;4.28;;;2.42;;
79747;SDS011;69232;47.488;19.268;2023-07-20T13:29:31;1.75;;;1.33;;
79747;SDS011;69232;47.488;19.268;2023-07-20T13:31:57;6.53;;;1.27;;
79747;SDS011;69232;47.488;19.268;2023-07-20T13:34:23;3.92;;;1.60;;
79747;SDS011;69232;47.488;19.268;2023-07-20T13:36:49;3.88;;;1.85;;
79747;SDS011;69232;47.488;19.268;2023-07-20T13:39:14;4.75;;;1.50;;
79747;SDS011;69232;47.488;19.268;2023-07-20T13:41:40;2.40;;;1.40;;
79747;SDS011;69232;47.488;19.268;2023-07-20T13:44:05;2.22;;;1.63;;
79747;SDS011;69232;47.488;19.268;2023-07-20T13:46:31;3.35;;;1.60;;
79747;SDS011;69232;47.488;19.268;2023-07-20T13:48:56;7.30;;;1.67;;
79747;SDS011;69232;47.488;19.268;2023-07-20T13:51:21;4.22;;;1.95;;
79747;SDS011;69232;47.488;19.268;2023-07-20T13:53:47;3.05;;;1.90;;
79747;SDS011;69232;47.488;19.268;2023-07-20T13:56:13;3.13;;;1.65;;
79747;SDS011;69232;47.488;19.268;2023-07-20T13:58:39;2.83;;;1.55;;
79747;SDS011;69232;47.488;19.268;2023-07-20T14:01:04;4.07;;;1.70;;
79747;SDS011;69232;47.488;19.268;2023-07-20T14:03:29;3.88;;;1.65;;
79747;SDS011;69232;47.488;19.268;2023-07-20T14:05:55;2.97;;;1.70;;
79747;SDS011;69232;47.488;19.268;2023-07-20T14:08:21;4.70;;;1.52;;
79747;SDS011;69232;47.488;19.268;2023-07-20T14:10:47;2.10;;;1.55;;
79747;SDS011;69232;47.488;19.268;2023-07-20T14:13:12;3.10;;;1.60;;
79747;SDS011;69232;47.488;19.268;2023-07-20T14:15:38;7.07;;;1.63;;
79747;SDS011;69232;47.488;19.268;2023-07-20T14:18:03;3.03;;;1.55;;
79747;SDS011;69232;47.488;19.268;2023-07-20T14:20:29;3.42;;;1.48;;
79747;SDS011;69232;47.488;19.268;2023-07-20T14:22:54;2.65;;;1.50;;
79747;SDS011;69232;47.488;19.268;2023-07-20T14:25:20;2.88;;;1.65;;
79747;SDS011;69232;47.488;19.268;2023-07-20T14:27:45;3.25;;;2.13;;
79747;SDS011;69232;47.488;19.268;2023-07-20T14:30:11;2.97;;;1.40;;
79747;SDS011;69232;47.488;19.268;2023-07-20T14:32:36;4.28;;;1.60;;
79747;SDS011;69232;47.488;19.268;2023-07-20T14:35:02;3.15;;;1.52;;
79747;SDS011;69232;47.488;19.268;2023-07-20T14:37:28;4.55;;;1.55;;
79747;SDS011;69232;47.488;19.268;2023-07-20T14:39:54;2.40;;;1.58;;
79747;SDS011;69232;47.488;19.268;2023-07-20T14:42:19;2.75;;;1.70;;
79747;SDS011;69232;47.488;19.268;2023-07-20T14:44:44;3.28;;;1.50;;
79747;SDS011;69232;47.488;19.268;2023-07-20T14:47:10;3.63;;;1.65;;
79747;SDS011;69232;47.488;19.268;2023-07-20T14:49:35;2.95;;;1.35;;